Emmonak, Alaska
Current Conditions -  °F | °C
As of 7:16 AM on Thursday 23 Oct 2014 (Local Time) from PAEM Reporting Station
Overcast Overcast  
Wind Chill: 20°   Ceiling: 10000
Heat Index: 28°   Visibility: 10mi
Dew Point: 23°   Wind: 8mph
Humidity: 80%   Direction: 170°S
Pressure: 29.83"   Gusts: NA
Location:  62.78°N, 164.53°W
Report Text: PAEM 231516Z 17007KT 10SM FEW017 OVC100 M02/M05 A2983 RMK AO1
Loading
Personal Weather Stations






























Interactive Weather Map New forecast layout! Learn more

10-Day Weather Forecast

Advertisements
Track Severe Weather on mobile